createdAt,value
2022-12-15T00:00:40.081Z,72.29
2022-12-15T00:03:26.418Z,71.93
2022-12-15T00:06:11.808Z,71.94
2022-12-15T00:08:56.964Z,71.73
2022-12-15T00:11:42.731Z,72.12
2022-12-15T00:14:28.229Z,72.31
2022-12-15T00:17:14.059Z,72.16
2022-12-15T00:19:59.490Z,71.46
2022-12-15T00:22:45.019Z,71.76
2022-12-15T00:25:30.114Z,71.51
2022-12-15T00:28:16.248Z,72.25
2022-12-15T00:31:02.700Z,71.78
2022-12-15T00:33:48.699Z,71.76
2022-12-15T00:36:34.262Z,72.03
2022-12-15T00:39:21.165Z,72.20
2022-12-15T00:42:08.067Z,71.77
2022-12-15T00:44:55.562Z,72.08
2022-12-15T00:47:42.735Z,71.62
2022-12-15T00:50:28.221Z,72.25
2022-12-15T00:53:13.811Z,71.57
2022-12-15T00:55:59.429Z,72.06
2022-12-15T00:58:45.246Z,72.08
2022-12-15T01:01:31.096Z,71.78
2022-12-15T01:04:16.644Z,71.38
2022-12-15T01:07:02.333Z,71.90
2022-12-15T01:09:47.752Z,72.12
2022-12-15T01:12:33.514Z,71.48
2022-12-15T01:15:19.330Z,71.97
2022-12-15T01:18:04.546Z,71.46
2022-12-15T01:20:51.491Z,71.78
2022-12-15T01:23:38.507Z,71.17
2022-12-15T01:26:26.780Z,72.01
2022-12-15T01:29:13.863Z,71.62
2022-12-15T01:32:00.861Z,71.71
2022-12-15T01:34:47.907Z,72.12
2022-12-15T01:37:35.108Z,71.47
2022-12-15T01:40:21.129Z,71.72
2022-12-15T01:43:08.241Z,71.97
2022-12-15T01:46:09.750Z,71.59
2022-12-15T01:49:08.743Z,71.77
2022-12-15T01:51:59.750Z,71.85
2022-12-15T01:54:54.924Z,72.16
2022-12-15T01:57:47.051Z,72.08
2022-12-15T02:00:35.094Z,71.54
2022-12-15T02:03:22.749Z,71.53
2022-12-15T02:06:09.862Z,71.50
2022-12-15T02:08:57.800Z,71.34
2022-12-15T02:12:09.693Z,71.30
2022-12-15T02:15:31.307Z,71.51
2022-12-15T02:18:42.308Z,71.98
2022-12-15T02:21:35.402Z,71.97
2022-12-15T02:24:33.836Z,71.18
2022-12-15T02:27:43.106Z,71.40
2022-12-15T02:30:35.673Z,71.69
2022-12-15T02:33:35.497Z,71.27
2022-12-15T02:36:43.756Z,71.57
2022-12-15T02:39:34.414Z,71.65
2022-12-15T02:42:21.274Z,71.34
2022-12-15T02:45:20.397Z,71.16
2022-12-15T02:48:30.804Z,71.00
2022-12-15T02:51:24.381Z,71.38
2022-12-15T02:54:43.329Z,71.31
2022-12-15T02:57:40.182Z,71.68
2022-12-15T03:00:30.332Z,70.92
2022-12-15T03:03:17.399Z,71.19
2022-12-15T03:06:04.310Z,71.55
2022-12-15T03:08:51.546Z,70.99
2022-12-15T03:11:38.760Z,71.01
2022-12-15T03:14:25.933Z,71.16
2022-12-15T03:17:14.011Z,71.28
2022-12-15T03:20:01.068Z,71.47
2022-12-15T03:22:47.894Z,72.00
2022-12-15T03:25:35.110Z,71.72
2022-12-15T03:28:22.461Z,71.32
2022-12-15T03:31:10.007Z,71.24
2022-12-15T03:33:57.043Z,71.67
2022-12-15T03:36:43.915Z,71.62
2022-12-15T03:39:30.856Z,71.76
2022-12-15T03:42:17.886Z,71.58
2022-12-15T03:45:04.935Z,71.91
2022-12-15T03:47:51.931Z,71.50
2022-12-15T03:50:41.803Z,71.59
2022-12-15T03:53:29.478Z,70.93
2022-12-15T03:56:16.748Z,71.70
2022-12-15T03:59:03.850Z,71.78
2022-12-15T04:01:53.452Z,71.06
2022-12-15T04:04:40.477Z,71.61
2022-12-15T04:07:27.541Z,71.25
2022-12-15T04:10:14.562Z,70.79
2022-12-15T04:13:01.545Z,71.14
2022-12-15T04:15:49.038Z,71.57
2022-12-15T04:18:35.952Z,70.95
2022-12-15T04:21:23.357Z,71.65
2022-12-15T04:24:08.754Z,71.48
2022-12-15T04:26:54.323Z,71.74
2022-12-15T04:29:39.897Z,71.26
2022-12-15T04:32:25.415Z,70.87
2022-12-15T04:35:11.181Z,71.70
2022-12-15T04:37:56.670Z,71.71
2022-12-15T04:40:42.266Z,71.28
2022-12-15T04:43:27.886Z,71.41
2022-12-15T04:46:14.049Z,71.59
2022-12-15T04:48:59.485Z,71.44
2022-12-15T04:51:45.277Z,71.06
2022-12-15T04:54:30.718Z,71.21
2022-12-15T04:57:16.025Z,71.02
2022-12-15T05:00:01.550Z,71.15
2022-12-15T05:02:47.629Z,71.39
2022-12-15T05:05:35.326Z,71.33
2022-12-15T05:08:21.074Z,71.97
2022-12-15T05:11:06.610Z,71.57
2022-12-15T05:13:52.337Z,71.49
2022-12-15T05:16:37.979Z,71.32
2022-12-15T05:19:23.758Z,71.27
2022-12-15T05:22:09.530Z,71.46
2022-12-15T05:24:55.070Z,71.39
2022-12-15T05:27:40.823Z,71.12
2022-12-15T05:30:26.790Z,71.61
2022-12-15T05:32:53.705Z,71.72
2022-12-15T05:35:20.732Z,71.53
2022-12-15T05:37:47.668Z,71.90
2022-12-15T05:40:34.662Z,71.70
2022-12-15T05:43:26.324Z,71.80
2022-12-15T05:45:53.904Z,71.47
2022-12-15T05:48:40.997Z,71.76
2022-12-15T05:51:29.784Z,71.43
2022-12-15T05:54:16.785Z,71.66
2022-12-15T05:57:04.425Z,71.26
2022-12-15T05:59:52.804Z,71.46
2022-12-15T06:02:39.796Z,72.10
2022-12-15T06:05:27.571Z,71.96
2022-12-15T06:08:14.702Z,71.69
2022-12-15T06:11:01.682Z,71.26
2022-12-15T06:13:53.284Z,71.54
2022-12-15T06:16:50.652Z,71.69
2022-12-15T06:19:27.717Z,71.24
2022-12-15T06:22:14.914Z,71.47
2022-12-15T06:28:27.991Z,71.44
2022-12-15T06:31:16.352Z,71.61
2022-12-15T06:34:06.546Z,71.31
2022-12-15T06:36:53.468Z,71.79
2022-12-15T06:39:40.530Z,71.40
2022-12-15T06:42:27.369Z,72.04
2022-12-15T06:45:14.556Z,71.81
2022-12-15T06:48:01.913Z,71.37
2022-12-15T06:50:50.243Z,71.64
2022-12-15T06:53:39.612Z,71.13
2022-12-15T06:56:34.872Z,71.64
2022-12-15T06:59:23.708Z,71.76
2022-12-15T07:02:10.982Z,71.71
2022-12-15T07:04:57.933Z,72.16
2022-12-15T07:07:45.841Z,71.81
2022-12-15T07:10:32.877Z,71.68
2022-12-15T07:13:20.050Z,71.93
2022-12-15T07:16:07.045Z,71.80
2022-12-15T07:18:54.545Z,71.77
2022-12-15T07:21:41.697Z,71.85
2022-12-15T07:24:31.188Z,71.73
2022-12-15T07:27:18.197Z,71.96
2022-12-15T07:30:05.109Z,71.35
2022-12-15T07:32:52.012Z,72.11
2022-12-15T07:35:19.331Z,71.82
2022-12-15T07:37:46.315Z,71.60
2022-12-15T07:40:13.438Z,72.09
2022-12-15T07:42:40.517Z,71.98
2022-12-15T07:45:07.974Z,71.84
2022-12-15T07:47:55.499Z,71.82
2022-12-15T07:50:42.574Z,71.76
2022-12-15T07:53:09.614Z,72.27
2022-12-15T07:56:06.769Z,71.81
2022-12-15T07:58:54.603Z,71.98
2022-12-15T08:01:41.635Z,72.06
2022-12-15T08:04:28.831Z,71.67
2022-12-15T08:07:16.270Z,71.31
2022-12-15T08:10:03.272Z,72.00
2022-12-15T08:12:50.299Z,71.52
2022-12-15T08:15:37.287Z,71.87
2022-12-15T08:18:25.730Z,71.98
2022-12-15T08:21:12.641Z,71.71
2022-12-15T08:23:59.557Z,71.52
2022-12-15T08:26:50.144Z,72.30
2022-12-15T08:29:53.082Z,71.77
2022-12-15T08:32:40.280Z,72.29
2022-12-15T08:35:55.133Z,72.21
2022-12-15T08:38:34.290Z,72.03
2022-12-15T08:41:32.928Z,72.02
2022-12-15T08:44:21.635Z,71.81
2022-12-15T08:47:09.134Z,71.83
2022-12-15T08:49:56.188Z,71.49
2022-12-15T08:53:00.687Z,71.94
2022-12-15T08:55:50.342Z,71.54
2022-12-15T08:58:37.724Z,71.32
2022-12-15T09:01:27.371Z,71.57
2022-12-15T09:04:16.454Z,72.12
2022-12-15T09:07:03.712Z,71.98
2022-12-15T09:09:50.576Z,72.17
2022-12-15T09:12:37.680Z,72.21
2022-12-15T09:15:45.437Z,72.19
2022-12-15T09:18:32.313Z,72.10
2022-12-15T09:21:24.143Z,72.26
2022-12-15T09:24:14.728Z,72.26
2022-12-15T09:27:04.766Z,71.84
2022-12-15T09:29:52.053Z,72.08
2022-12-15T09:32:38.971Z,72.08
2022-12-15T09:35:26.254Z,72.33
2022-12-15T09:38:13.150Z,72.33
2022-12-15T09:41:00.018Z,72.21
2022-12-15T09:43:48.329Z,72.12
2022-12-15T09:46:56.214Z,72.30
2022-12-15T09:50:07.627Z,72.50
2022-12-15T09:53:23.281Z,72.39
2022-12-15T09:56:24.731Z,72.72
2022-12-15T09:59:39.570Z,72.10
2022-12-15T10:03:08.427Z,72.36
2022-12-15T10:06:25.966Z,72.15
2022-12-15T10:09:50.296Z,72.07
2022-12-15T10:12:55.279Z,72.35
2022-12-15T10:16:01.300Z,72.23
2022-12-15T10:19:02.168Z,72.34
2022-12-15T10:21:51.371Z,72.22
2022-12-15T10:25:09.126Z,72.44
2022-12-15T10:28:18.712Z,72.49
2022-12-15T10:31:17.565Z,72.33
2022-12-15T10:34:11.801Z,72.40
2022-12-15T10:37:09.942Z,72.46
2022-12-15T10:39:59.335Z,72.22
2022-12-15T10:42:47.176Z,72.22
2022-12-15T10:46:08.021Z,72.46
2022-12-15T10:48:56.371Z,72.57
2022-12-15T10:52:02.704Z,72.34
2022-12-15T10:55:03.646Z,72.31
2022-12-15T10:57:54.408Z,72.35
2022-12-15T11:00:50.757Z,72.25
2022-12-15T11:03:58.468Z,72.44
2022-12-15T11:06:48.552Z,72.19
2022-12-15T11:09:48.550Z,72.16
2022-12-15T11:12:38.895Z,72.71
2022-12-15T11:15:51.844Z,72.36
2022-12-15T11:18:41.647Z,72.13
2022-12-15T11:21:40.485Z,72.32
2022-12-15T11:24:34.821Z,72.35
2022-12-15T11:27:25.839Z,72.91
2022-12-15T11:30:33.517Z,72.43
2022-12-15T11:33:21.632Z,72.44
2022-12-15T11:36:36.423Z,72.49
2022-12-15T11:39:48.663Z,72.46
2022-12-15T11:42:41.369Z,72.57
2022-12-15T11:45:50.269Z,72.47
2022-12-15T11:48:59.939Z,72.51
2022-12-15T11:52:11.283Z,72.48
2022-12-15T11:55:27.669Z,72.47
2022-12-15T11:58:44.556Z,72.38
2022-12-15T12:01:52.606Z,72.50
2022-12-15T12:04:47.476Z,72.54
2022-12-15T12:08:11.931Z,72.47
2022-12-15T12:11:21.292Z,72.52
2022-12-15T12:14:32.644Z,72.54
2022-12-15T12:17:28.373Z,72.29
2022-12-15T12:20:19.846Z,72.60
2022-12-15T12:23:50.258Z,72.51
2022-12-15T12:26:55.323Z,72.57
2022-12-15T12:29:58.005Z,72.65
2022-12-15T12:33:03.571Z,72.49
2022-12-15T12:36:01.471Z,72.43
2022-12-15T12:38:56.975Z,72.63
2022-12-15T12:41:43.708Z,72.48
2022-12-15T12:44:53.446Z,72.55
2022-12-15T12:47:46.023Z,72.42
2022-12-15T12:50:50.546Z,72.63
2022-12-15T12:54:03.820Z,72.61
2022-12-15T12:57:03.944Z,72.68
2022-12-15T12:59:50.819Z,72.35
2022-12-15T13:02:40.764Z,72.54
2022-12-15T13:05:45.247Z,72.43
2022-12-15T13:08:32.279Z,72.42
2022-12-15T13:11:41.998Z,72.70
2022-12-15T13:14:21.091Z,72.73
2022-12-15T13:17:24.787Z,72.84
2022-12-15T13:20:19.205Z,72.61
2022-12-15T13:23:06.335Z,72.66
2022-12-15T13:25:40.296Z,72.47
2022-12-15T13:28:29.755Z,72.75
2022-12-15T13:31:41.192Z,72.69
2022-12-15T13:34:16.809Z,72.79
2022-12-15T13:36:52.583Z,72.91
2022-12-15T13:39:50.408Z,72.77
2022-12-15T13:45:57.783Z,72.43
2022-12-15T13:48:56.836Z,72.54
2022-12-15T13:52:03.190Z,72.51
2022-12-15T13:55:02.372Z,72.91
2022-12-15T13:57:54.403Z,72.77
2022-12-15T14:00:41.727Z,72.59
2022-12-15T14:03:33.287Z,72.58
2022-12-15T14:06:21.295Z,72.75
2022-12-15T14:09:08.383Z,73.17
2022-12-15T14:11:55.908Z,72.64
2022-12-15T14:14:26.805Z,72.91
2022-12-15T14:16:58.387Z,72.76
2022-12-15T14:19:26.049Z,72.80
2022-12-15T14:22:21.748Z,72.77
2022-12-15T14:25:57.428Z,72.98
2022-12-15T14:28:50.589Z,72.84
2022-12-15T14:31:42.059Z,72.79
2022-12-15T14:34:43.555Z,72.77
2022-12-15T14:37:39.049Z,72.61
2022-12-15T14:40:29.100Z,72.87
2022-12-15T14:43:16.770Z,72.65
2022-12-15T14:45:44.140Z,72.50
2022-12-15T14:51:32.562Z,72.53
2022-12-15T14:54:19.440Z,72.67
2022-12-15T14:57:17.047Z,72.58
2022-12-15T14:59:54.087Z,72.40
2022-12-15T15:02:48.587Z,72.46
2022-12-15T15:03:05.640Z,72.81
2022-12-15T15:05:27.861Z,72.35
2022-12-15T15:07:56.699Z,72.78
2022-12-15T15:10:29.509Z,72.76
2022-12-15T15:12:56.523Z,72.78
2022-12-15T15:15:46.567Z,72.82
2022-12-15T15:18:43.858Z,73.17
2022-12-15T15:21:38.333Z,72.72
2022-12-15T15:24:30.882Z,72.64
2022-12-15T15:27:58.134Z,72.61
2022-12-15T15:30:45.216Z,72.73
2022-12-15T15:33:33.060Z,72.85
2022-12-15T15:36:22.091Z,72.81
2022-12-15T15:39:09.054Z,72.39
2022-12-15T15:41:55.899Z,72.58
2022-12-15T15:44:42.782Z,72.68
2022-12-15T15:47:43.701Z,72.52
2022-12-15T15:50:37.687Z,72.76
2022-12-15T15:53:24.646Z,72.55
2022-12-15T15:55:54.886Z,72.85
2022-12-15T15:58:41.785Z,72.58
2022-12-15T16:01:28.941Z,72.68
2022-12-15T16:04:15.840Z,72.83
2022-12-15T16:07:03.075Z,72.70
2022-12-15T16:09:49.997Z,72.68
2022-12-15T16:13:01.858Z,72.91
2022-12-15T16:15:53.950Z,72.54
2022-12-15T16:18:41.090Z,72.77
2022-12-15T16:21:32.844Z,72.68
2022-12-15T16:24:30.321Z,72.74
2022-12-15T16:27:17.222Z,72.32
2022-12-15T16:30:04.330Z,72.40
2022-12-15T16:32:51.132Z,72.62
2022-12-15T16:35:38.571Z,72.65
2022-12-15T16:38:55.047Z,72.85
2022-12-15T16:41:42.091Z,72.95
2022-12-15T16:44:31.428Z,72.71
2022-12-15T16:47:19.373Z,72.57
2022-12-15T16:50:06.184Z,72.67
2022-12-15T16:52:53.276Z,72.63
2022-12-15T16:55:46.679Z,72.57
2022-12-15T16:58:36.370Z,72.66
2022-12-15T17:01:23.832Z,72.72
2022-12-15T17:04:11.396Z,72.78
2022-12-15T17:06:58.448Z,72.86
2022-12-15T17:09:45.986Z,72.69
2022-12-15T17:12:37.574Z,72.86
2022-12-15T17:15:36.429Z,72.89
2022-12-15T17:18:24.429Z,72.72
2022-12-15T17:21:16.225Z,72.50
2022-12-15T17:24:10.079Z,72.70
2022-12-15T17:26:57.454Z,72.56
2022-12-15T17:29:45.146Z,72.56
2022-12-15T17:32:33.112Z,72.45
2022-12-15T17:35:20.429Z,72.76
2022-12-15T17:38:07.738Z,72.78
2022-12-15T17:40:55.096Z,72.67
2022-12-15T17:44:04.330Z,72.69
2022-12-15T17:46:55.191Z,72.95
2022-12-15T17:49:42.450Z,72.71
2022-12-15T17:52:42.703Z,72.76
2022-12-15T17:55:42.348Z,72.64
2022-12-15T17:58:41.202Z,72.64
2022-12-15T18:01:33.261Z,72.68
2022-12-15T18:04:20.205Z,72.73
2022-12-15T18:07:07.327Z,72.76
2022-12-15T18:09:54.207Z,72.96
2022-12-15T18:12:44.778Z,72.79
2022-12-15T18:15:41.003Z,72.50
2022-12-15T18:18:28.005Z,72.78
2022-12-15T18:21:19.180Z,72.77
2022-12-15T18:24:06.246Z,72.57
2022-12-15T18:26:53.164Z,72.79
2022-12-15T18:29:40.208Z,72.58
2022-12-15T18:32:29.588Z,72.78
2022-12-15T18:35:20.170Z,72.74
2022-12-15T18:38:06.970Z,72.83
2022-12-15T18:40:53.975Z,72.84
2022-12-15T18:43:38.847Z,72.54
2022-12-15T18:46:05.986Z,72.77
2022-12-15T18:48:37.675Z,72.73
2022-12-15T18:51:17.092Z,72.73
2022-12-15T18:54:04.556Z,73.03
2022-12-15T18:56:51.688Z,72.78
2022-12-15T18:59:38.855Z,72.77
2022-12-15T19:02:25.969Z,72.74
2022-12-15T19:05:13.009Z,72.57
2022-12-15T19:08:00.044Z,72.83
2022-12-15T19:10:49.807Z,72.48
2022-12-15T19:13:38.728Z,72.72
2022-12-15T19:16:30.356Z,72.70
2022-12-15T19:19:17.504Z,72.73
2022-12-15T19:21:44.515Z,72.67
2022-12-15T19:24:36.908Z,72.44
2022-12-15T19:27:30.190Z,72.45
2022-12-15T19:30:17.331Z,72.71
2022-12-15T19:33:04.265Z,72.65
2022-12-15T19:35:51.405Z,72.70
2022-12-15T19:38:43.095Z,72.69
2022-12-15T19:41:35.624Z,72.72
2022-12-15T19:44:22.694Z,72.74
2022-12-15T19:47:09.772Z,72.69
2022-12-15T19:49:56.754Z,72.60
2022-12-15T19:52:43.840Z,72.53
2022-12-15T19:55:38.418Z,72.61
2022-12-15T19:58:48.332Z,72.61
2022-12-15T20:01:36.985Z,72.74
2022-12-15T20:04:24.512Z,72.36
2022-12-15T20:07:11.516Z,72.60
2022-12-15T20:09:58.408Z,72.66
2022-12-15T20:12:45.254Z,72.71
2022-12-15T20:15:37.401Z,72.66
2022-12-15T20:18:24.472Z,72.73
2022-12-15T20:21:11.755Z,72.59
2022-12-15T20:24:09.408Z,72.75
2022-12-15T20:26:57.915Z,72.67
2022-12-15T20:29:50.866Z,72.29
2022-12-15T20:32:40.395Z,72.55
2022-12-15T20:35:27.434Z,72.35
2022-12-15T20:38:14.619Z,72.55
2022-12-15T20:41:01.958Z,72.46
2022-12-15T20:43:51.284Z,72.12
2022-12-15T20:46:42.199Z,72.63
2022-12-15T20:49:40.929Z,72.54
2022-12-15T20:52:38.513Z,72.45
2022-12-15T20:55:26.771Z,72.46
2022-12-15T20:58:13.851Z,72.33
2022-12-15T21:01:01.432Z,72.55
2022-12-15T21:03:52.859Z,72.63
2022-12-15T21:06:40.578Z,72.44
2022-12-15T21:09:34.191Z,72.72
2022-12-15T21:12:21.578Z,72.60
2022-12-15T21:15:09.695Z,72.32
2022-12-15T21:18:20.031Z,72.49
2022-12-15T21:21:07.790Z,72.39
2022-12-15T21:23:54.961Z,72.28
2022-12-15T21:26:43.822Z,72.71
2022-12-15T21:29:35.979Z,72.33
2022-12-15T21:32:23.022Z,72.38
2022-12-15T21:35:09.884Z,72.75
2022-12-15T21:37:57.060Z,72.46
2022-12-15T21:40:46.123Z,72.62
2022-12-15T21:43:33.305Z,72.33
2022-12-15T21:46:26.366Z,72.33
2022-12-15T21:49:34.307Z,72.27
2022-12-15T21:52:21.218Z,72.32
2022-12-15T21:55:08.267Z,72.42
2022-12-15T21:57:55.043Z,72.13
2022-12-15T22:00:45.759Z,72.43
2022-12-15T22:03:33.150Z,72.46
2022-12-15T22:06:20.232Z,72.61
2022-12-15T22:09:07.957Z,72.51
2022-12-15T22:11:54.934Z,72.07
2022-12-15T22:14:49.374Z,72.48
2022-12-15T22:17:38.444Z,72.29
2022-12-15T22:20:43.887Z,72.36
2022-12-15T22:23:31.002Z,72.21
2022-12-15T22:26:17.819Z,72.39
2022-12-15T22:29:05.118Z,72.37
2022-12-15T22:31:52.055Z,72.18
2022-12-15T22:34:45.029Z,72.04
2022-12-15T22:37:32.313Z,72.33
2022-12-15T22:40:19.526Z,72.21
2022-12-15T22:43:16.769Z,72.63
2022-12-15T22:46:03.928Z,72.49
2022-12-15T22:48:54.716Z,71.95
2022-12-15T22:51:42.119Z,72.03
2022-12-15T22:54:55.167Z,72.33
2022-12-15T22:57:48.959Z,72.43
2022-12-15T23:00:36.498Z,72.63
2022-12-15T23:07:07.876Z,72.17
2022-12-15T23:09:54.674Z,72.13
2022-12-15T23:12:41.735Z,71.98
2022-12-15T23:15:27.982Z,72.05
2022-12-15T23:18:14.895Z,72.22
2022-12-15T23:21:01.915Z,72.11
2022-12-15T23:23:49.106Z,72.02
2022-12-15T23:26:37.381Z,72.00
2022-12-15T23:29:24.549Z,72.19
2022-12-15T23:32:11.413Z,72.34
2022-12-15T23:34:58.471Z,72.38
2022-12-15T23:37:45.318Z,72.38
2022-12-15T23:40:32.972Z,72.31
2022-12-15T23:43:19.758Z,72.39
2022-12-15T23:46:15.053Z,72.52
2022-12-15T23:49:03.304Z,72.33
2022-12-15T23:51:50.408Z,72.57
2022-12-15T23:54:37.354Z,72.70
2022-12-15T23:57:24.531Z,72.45
